createdAt,value
2023-05-11T00:00:48.621Z,100.00
2023-05-11T00:05:50.434Z,100.00
2023-05-11T00:10:52.179Z,100.00
2023-05-11T00:15:53.852Z,100.00
2023-05-11T00:20:56.819Z,100.00
2023-05-11T00:25:58.408Z,100.00
2023-05-11T00:31:00.034Z,100.00
2023-05-11T00:36:03.422Z,100.00
2023-05-11T00:41:04.988Z,100.00
2023-05-11T00:46:07.109Z,100.00
2023-05-11T00:51:08.954Z,100.00
2023-05-11T00:56:10.633Z,100.00
2023-05-11T01:01:12.385Z,100.00
2023-05-11T01:06:53.320Z,100.00
2023-05-11T01:12:08.299Z,100.00
2023-05-11T01:17:18.456Z,100.00
2023-05-11T01:22:38.004Z,100.00
2023-05-11T01:27:56.745Z,100.00
2023-05-11T01:33:03.366Z,100.00
2023-05-11T01:38:10.334Z,100.00
2023-05-11T01:43:20.519Z,100.00
2023-05-11T01:48:25.879Z,100.00
2023-05-11T01:53:33.272Z,100.00
2023-05-11T01:58:38.720Z,100.00
2023-05-11T02:03:42.902Z,100.00
2023-05-11T02:08:46.030Z,100.00
2023-05-11T02:13:49.422Z,100.00
2023-05-11T02:18:52.776Z,100.00
2023-05-11T02:23:56.919Z,100.00
2023-05-11T02:28:58.546Z,100.00
2023-05-11T02:34:07.069Z,100.00
2023-05-11T02:39:12.712Z,100.00
2023-05-11T02:44:18.321Z,100.00
2023-05-11T02:49:25.396Z,100.00
2023-05-11T02:54:29.144Z,100.00
2023-05-11T02:59:31.388Z,100.00
2023-05-11T03:04:34.690Z,100.00
2023-05-11T03:09:38.001Z,100.00
2023-05-11T03:14:40.323Z,100.00
2023-05-11T03:19:43.081Z,100.00
2023-05-11T03:24:46.087Z,100.00
2023-05-11T03:29:50.813Z,100.00
2023-05-11T03:34:52.692Z,100.00
2023-05-11T03:39:58.841Z,100.00
2023-05-11T03:45:06.006Z,100.00
2023-05-11T03:50:09.185Z,100.00
2023-05-11T03:55:11.304Z,100.00
2023-05-11T04:00:13.806Z,100.00
2023-05-11T04:05:19.252Z,100.00
2023-05-11T04:10:22.738Z,100.00
2023-05-11T04:15:24.335Z,100.00
2023-05-11T04:20:26.017Z,100.00
2023-05-11T04:25:27.637Z,100.00
2023-05-11T04:30:29.321Z,100.00
2023-05-11T04:35:31.825Z,100.00
2023-05-11T04:40:36.626Z,100.00
2023-05-11T04:45:38.415Z,100.00
2023-05-11T04:50:40.152Z,100.00
2023-05-11T04:55:42.687Z,100.00
2023-05-11T05:00:44.558Z,100.00
2023-05-11T05:05:47.683Z,100.00
2023-05-11T05:10:49.396Z,100.00
2023-05-11T05:15:51.133Z,100.00
2023-05-11T05:20:53.043Z,100.00
2023-05-11T05:25:54.743Z,100.00
2023-05-11T05:30:57.003Z,100.00
2023-05-11T05:36:01.496Z,100.00
2023-05-11T05:41:03.642Z,100.00
2023-05-11T05:46:09.644Z,100.00
2023-05-11T05:51:11.595Z,100.00
2023-05-11T05:56:21.849Z,100.00
2023-05-11T06:01:32.893Z,100.00
2023-05-11T06:06:34.627Z,100.00
2023-05-11T06:11:36.678Z,100.00
2023-05-11T06:16:39.027Z,100.00
2023-05-11T06:21:42.933Z,100.00
2023-05-11T06:26:44.686Z,100.00
2023-05-11T06:31:46.413Z,100.00
2023-05-11T06:36:48.817Z,100.00
2023-05-11T06:41:53.578Z,99.83
2023-05-11T06:46:56.701Z,99.66
2023-05-11T06:51:58.341Z,97.29
2023-05-11T06:56:59.991Z,96.49
2023-05-11T07:02:01.658Z,95.73
2023-05-11T07:07:03.914Z,94.02
2023-05-11T07:12:05.842Z,92.98
2023-05-11T07:17:07.466Z,92.22
2023-05-11T07:22:09.060Z,91.15
2023-05-11T07:27:11.377Z,90.60
2023-05-11T07:32:13.208Z,89.95
2023-05-11T07:37:20.526Z,89.05
2023-05-11T07:42:22.088Z,88.40
2023-05-11T07:47:24.876Z,87.98
2023-05-11T07:52:26.799Z,87.82
2023-05-11T07:57:28.420Z,86.71
2023-05-11T08:02:30.428Z,86.39
2023-05-11T08:07:32.065Z,85.87
2023-05-11T08:12:33.901Z,85.69
2023-05-11T08:17:38.569Z,84.36
2023-05-11T08:22:40.230Z,84.48
2023-05-11T08:27:50.612Z,83.89
2023-05-11T08:32:58.668Z,83.34
2023-05-11T08:38:01.509Z,82.01
2023-05-11T08:43:05.810Z,80.86
2023-05-11T08:48:07.594Z,79.68
2023-05-11T08:53:09.199Z,79.12
2023-05-11T08:58:12.398Z,78.99
2023-05-11T09:03:14.805Z,79.28
2023-05-11T09:08:19.012Z,78.69
2023-05-11T09:13:27.307Z,78.40
2023-05-11T09:18:30.141Z,77.68
2023-05-11T09:23:32.240Z,77.90
2023-05-11T09:33:47.586Z,76.02
2023-05-11T09:38:49.197Z,75.49
2023-05-11T09:43:50.913Z,75.28
2023-05-11T09:49:00.468Z,75.64
2023-05-11T09:54:15.009Z,74.30
2023-05-11T09:59:41.370Z,72.82
2023-05-11T10:04:43.025Z,70.90
2023-05-11T10:09:45.903Z,71.15
2023-05-11T10:14:49.366Z,70.24
2023-05-11T10:19:54.392Z,70.13
2023-05-11T10:24:59.858Z,69.79
2023-05-11T10:30:03.881Z,69.01
2023-05-11T10:35:06.846Z,67.95
2023-05-11T10:40:09.723Z,66.79
2023-05-11T10:45:29.846Z,65.11
2023-05-11T10:51:09.106Z,63.05
2023-05-11T10:56:20.005Z,62.41
2023-05-11T11:01:39.559Z,62.57
2023-05-11T11:06:43.488Z,61.97
2023-05-11T11:11:47.978Z,63.09
2023-05-11T11:17:21.328Z,62.51
2023-05-11T11:22:35.399Z,61.72
2023-05-11T11:27:44.600Z,62.11
2023-05-11T11:32:48.439Z,61.75
2023-05-11T11:38:03.586Z,60.28
2023-05-11T11:43:18.144Z,59.97
2023-05-11T11:48:29.374Z,60.66
2023-05-11T11:53:44.630Z,60.19
2023-05-11T11:58:46.648Z,59.50
2023-05-11T12:04:11.217Z,59.04
2023-05-11T12:09:18.345Z,57.88
2023-05-11T12:14:21.645Z,58.55
2023-05-11T12:19:24.642Z,57.10
2023-05-11T12:24:26.913Z,56.49
2023-05-11T12:29:28.501Z,57.47
2023-05-11T12:34:32.678Z,57.14
2023-05-11T12:39:36.221Z,56.90
2023-05-11T12:44:37.904Z,56.01
2023-05-11T12:49:56.791Z,55.32
2023-05-11T12:55:00.785Z,55.17
2023-05-11T13:00:15.848Z,54.89
2023-05-11T13:05:19.967Z,55.93
2023-05-11T13:10:25.510Z,55.79
2023-05-11T13:15:28.682Z,55.03
2023-05-11T13:20:33.847Z,54.56
2023-05-11T13:25:55.024Z,54.66
2023-05-11T13:31:01.939Z,54.16
2023-05-11T13:36:03.857Z,53.39
2023-05-11T13:41:06.786Z,53.03
2023-05-11T13:46:08.400Z,53.29
2023-05-11T13:51:09.982Z,53.34
2023-05-11T13:56:11.912Z,53.05
2023-05-11T14:01:13.549Z,53.34
2023-05-11T14:06:15.269Z,51.57
2023-05-11T14:11:17.242Z,52.11
2023-05-11T14:16:20.858Z,52.66
2023-05-11T14:21:22.615Z,52.49
2023-05-11T14:26:24.273Z,54.11
2023-05-11T14:31:26.157Z,53.71
2023-05-11T14:36:28.115Z,54.35
2023-05-11T14:41:30.541Z,53.97
2023-05-11T14:46:32.369Z,54.38
2023-05-11T14:51:34.117Z,54.15
2023-05-11T14:56:36.292Z,53.21
2023-05-11T15:01:38.053Z,53.56
2023-05-11T15:06:39.812Z,53.73
2023-05-11T15:11:41.448Z,54.63
2023-05-11T15:16:43.141Z,53.99
2023-05-11T15:21:56.778Z,54.50
2023-05-11T15:26:58.546Z,54.54
2023-05-11T15:32:00.245Z,54.85
2023-05-11T15:37:01.906Z,54.81
2023-05-11T15:42:04.007Z,54.23
2023-05-11T15:47:06.158Z,54.47
2023-05-11T15:52:08.304Z,54.97
2023-05-11T15:57:09.960Z,55.66
2023-05-11T16:02:11.884Z,55.20
2023-05-11T16:07:13.710Z,53.81
2023-05-11T16:12:15.365Z,53.90
2023-05-11T16:17:17.092Z,53.72
2023-05-11T16:22:18.775Z,53.64
2023-05-11T16:27:20.577Z,53.64
2023-05-11T16:32:22.163Z,54.04
2023-05-11T16:37:27.014Z,55.14
2023-05-11T16:42:28.617Z,55.23
2023-05-11T16:47:33.057Z,56.87
2023-05-11T16:52:34.662Z,57.29
2023-05-11T16:57:36.342Z,58.00
2023-05-11T17:02:38.029Z,58.04
2023-05-11T17:07:39.912Z,56.99
2023-05-11T17:12:41.717Z,58.03
2023-05-11T17:17:44.859Z,58.42
2023-05-11T17:22:47.211Z,57.46
2023-05-11T17:27:49.197Z,56.99
2023-05-11T17:32:51.981Z,57.51
2023-05-11T17:37:53.816Z,58.77
2023-05-11T17:42:55.713Z,59.48
2023-05-11T17:47:57.323Z,60.01
2023-05-11T17:53:02.939Z,60.97
2023-05-11T17:58:04.559Z,61.69
2023-05-11T18:03:08.988Z,62.20
2023-05-11T18:08:10.661Z,63.26
2023-05-11T18:13:13.119Z,63.34
2023-05-11T18:18:15.038Z,64.42
2023-05-11T18:23:16.577Z,64.50
2023-05-11T18:28:20.861Z,65.33
2023-05-11T18:33:22.642Z,66.29
2023-05-11T18:38:24.296Z,66.31
2023-05-11T18:43:25.897Z,67.33
2023-05-11T18:48:27.457Z,68.13
2023-05-11T18:53:33.483Z,68.64
2023-05-11T18:58:35.030Z,68.11
2023-05-11T19:03:36.613Z,68.24
2023-05-11T19:08:38.236Z,69.05
2023-05-11T19:13:40.558Z,70.57
2023-05-11T19:18:42.260Z,71.75
2023-05-11T19:23:43.844Z,72.42
2023-05-11T19:28:45.447Z,72.90
2023-05-11T19:33:50.982Z,74.09
2023-05-11T19:38:52.694Z,74.79
2023-05-11T19:43:54.474Z,75.92
2023-05-11T19:48:56.398Z,76.78
2023-05-11T19:54:03.119Z,77.03
2023-05-11T19:59:04.923Z,77.11
2023-05-11T20:04:06.518Z,78.05
2023-05-11T20:09:08.263Z,77.86
2023-05-11T20:14:09.841Z,79.09
2023-05-11T20:19:15.231Z,79.19
2023-05-11T20:24:16.796Z,79.97
2023-05-11T20:29:18.392Z,80.03
2023-05-11T20:34:20.033Z,81.04
2023-05-11T20:39:22.013Z,81.70
2023-05-11T20:44:23.634Z,82.66
2023-05-11T20:49:37.412Z,83.78
2023-05-11T20:54:40.335Z,84.73
2023-05-11T21:04:46.915Z,86.68
2023-05-11T21:09:48.709Z,88.22
2023-05-11T21:14:50.453Z,90.27
2023-05-11T21:19:52.173Z,91.51
2023-05-11T21:24:53.831Z,92.08
2023-05-11T21:29:56.428Z,94.13
2023-05-11T21:34:58.110Z,95.30
2023-05-11T21:40:00.545Z,96.18
2023-05-11T21:45:02.962Z,96.36
2023-05-11T21:50:09.531Z,98.94
2023-05-11T21:55:11.167Z,99.83
2023-05-11T22:00:18.587Z,100.00
2023-05-11T22:05:20.824Z,100.00
2023-05-11T22:10:23.258Z,100.00
2023-05-11T22:15:25.025Z,100.00
2023-05-11T22:20:33.224Z,100.00
2023-05-11T22:25:34.864Z,100.00
2023-05-11T22:30:37.733Z,100.00
2023-05-11T22:35:39.904Z,100.00
2023-05-11T22:40:41.576Z,100.00
2023-05-11T22:45:43.260Z,100.00
2023-05-11T22:50:47.598Z,100.00
2023-05-11T22:55:49.249Z,100.00
2023-05-11T23:00:54.652Z,100.00
2023-05-11T23:05:56.616Z,100.00
2023-05-11T23:10:58.208Z,100.00
2023-05-11T23:15:59.984Z,100.00
2023-05-11T23:21:01.810Z,100.00
2023-05-11T23:26:03.476Z,100.00
2023-05-11T23:31:05.186Z,100.00
2023-05-11T23:36:07.607Z,100.00
2023-05-11T23:41:09.309Z,100.00
2023-05-11T23:46:11.192Z,100.00
2023-05-11T23:51:13.224Z,100.00
2023-05-11T23:56:15.228Z,100.00
